sensor_id;sensor_type;location;lat;lon;timestamp;P1;durP1;ratioP1;P2;durP2;ratioP2
74851;SDS011;63400;50.650;6.832;2023-11-22T00:01:03;8.27;;;3.92;;
74851;SDS011;63400;50.650;6.832;2023-11-22T00:03:29;7.93;;;3.47;;
74851;SDS011;63400;50.650;6.832;2023-11-22T00:05:55;8.38;;;3.70;;
74851;SDS011;63400;50.650;6.832;2023-11-22T00:08:21;8.90;;;3.88;;
74851;SDS011;63400;50.650;6.832;2023-11-22T00:10:46;9.55;;;3.88;;
74851;SDS011;63400;50.650;6.832;2023-11-22T00:13:11;9.88;;;4.50;;
74851;SDS011;63400;50.650;6.832;2023-11-22T00:15:37;9.40;;;4.20;;
74851;SDS011;63400;50.650;6.832;2023-11-22T00:18:03;11.95;;;4.90;;
74851;SDS011;63400;50.650;6.832;2023-11-22T00:20:31;9.02;;;3.85;;
74851;SDS011;63400;50.650;6.832;2023-11-22T00:22:58;11.35;;;4.28;;
74851;SDS011;63400;50.650;6.832;2023-11-22T00:25:24;9.68;;;4.07;;
74851;SDS011;63400;50.650;6.832;2023-11-22T00:27:49;7.75;;;4.15;;
74851;SDS011;63400;50.650;6.832;2023-11-22T00:30:15;8.35;;;4.60;;
74851;SDS011;63400;50.650;6.832;2023-11-22T00:32:40;9.70;;;4.13;;
74851;SDS011;63400;50.650;6.832;2023-11-22T00:35:06;9.55;;;5.03;;
74851;SDS011;63400;50.650;6.832;2023-11-22T00:37:36;10.00;;;4.53;;
74851;SDS011;63400;50.650;6.832;2023-11-22T00:40:02;10.75;;;4.43;;
74851;SDS011;63400;50.650;6.832;2023-11-22T00:42:35;12.43;;;4.65;;
74851;SDS011;63400;50.650;6.832;2023-11-22T00:45:02;10.25;;;4.32;;
74851;SDS011;63400;50.650;6.832;2023-11-22T00:47:30;11.65;;;5.13;;
74851;SDS011;63400;50.650;6.832;2023-11-22T00:49:57;10.48;;;4.45;;
74851;SDS011;63400;50.650;6.832;2023-11-22T00:52:23;10.10;;;5.03;;
74851;SDS011;63400;50.650;6.832;2023-11-22T00:54:52;11.95;;;4.53;;
74851;SDS011;63400;50.650;6.832;2023-11-22T00:57:18;8.80;;;3.95;;
74851;SDS011;63400;50.650;6.832;2023-11-22T00:59:43;9.75;;;4.25;;
74851;SDS011;63400;50.650;6.832;2023-11-22T01:02:09;12.82;;;5.13;;
74851;SDS011;63400;50.650;6.832;2023-11-22T01:04:34;11.23;;;4.97;;
74851;SDS011;63400;50.650;6.832;2023-11-22T01:07:01;10.52;;;5.03;;
74851;SDS011;63400;50.650;6.832;2023-11-22T01:09:30;11.25;;;5.15;;
74851;SDS011;63400;50.650;6.832;2023-11-22T01:11:57;8.82;;;5.10;;
74851;SDS011;63400;50.650;6.832;2023-11-22T01:14:22;7.28;;;3.63;;
74851;SDS011;63400;50.650;6.832;2023-11-22T01:16:48;9.20;;;4.38;;
74851;SDS011;63400;50.650;6.832;2023-11-22T01:19:13;11.00;;;4.50;;
74851;SDS011;63400;50.650;6.832;2023-11-22T01:21:38;9.45;;;3.78;;
74851;SDS011;63400;50.650;6.832;2023-11-22T01:24:04;11.35;;;4.72;;
74851;SDS011;63400;50.650;6.832;2023-11-22T01:26:30;10.57;;;4.35;;
74851;SDS011;63400;50.650;6.832;2023-11-22T01:28:55;10.20;;;4.95;;
74851;SDS011;63400;50.650;6.832;2023-11-22T01:31:21;9.88;;;5.28;;
74851;SDS011;63400;50.650;6.832;2023-11-22T01:33:47;10.45;;;4.35;;
74851;SDS011;63400;50.650;6.832;2023-11-22T01:36:13;9.85;;;4.75;;
74851;SDS011;63400;50.650;6.832;2023-11-22T01:38:40;9.75;;;4.63;;
74851;SDS011;63400;50.650;6.832;2023-11-22T01:41:05;13.43;;;4.82;;
74851;SDS011;63400;50.650;6.832;2023-11-22T01:43:31;9.65;;;4.60;;
74851;SDS011;63400;50.650;6.832;2023-11-22T01:45:56;9.60;;;4.57;;
74851;SDS011;63400;50.650;6.832;2023-11-22T01:48:22;11.07;;;4.60;;
74851;SDS011;63400;50.650;6.832;2023-11-22T01:50:47;10.23;;;5.18;;
74851;SDS011;63400;50.650;6.832;2023-11-22T01:53:13;10.93;;;5.47;;
74851;SDS011;63400;50.650;6.832;2023-11-22T02:00:32;12.47;;;4.50;;
74851;SDS011;63400;50.650;6.832;2023-11-22T02:03:02;9.80;;;4.72;;
74851;SDS011;63400;50.650;6.832;2023-11-22T02:05:27;16.38;;;5.90;;
74851;SDS011;63400;50.650;6.832;2023-11-22T02:07:53;10.52;;;4.55;;
74851;SDS011;63400;50.650;6.832;2023-11-22T02:10:18;11.27;;;4.88;;
74851;SDS011;63400;50.650;6.832;2023-11-22T02:12:44;12.75;;;5.40;;
74851;SDS011;63400;50.650;6.832;2023-11-22T02:15:09;11.10;;;5.97;;
74851;SDS011;63400;50.650;6.832;2023-11-22T02:17:35;10.50;;;4.70;;
74851;SDS011;63400;50.650;6.832;2023-11-22T02:20:01;11.75;;;5.32;;
74851;SDS011;63400;50.650;6.832;2023-11-22T02:22:26;11.13;;;5.35;;
74851;SDS011;63400;50.650;6.832;2023-11-22T02:24:51;10.98;;;4.97;;
74851;SDS011;63400;50.650;6.832;2023-11-22T02:27:17;13.38;;;4.97;;
74851;SDS011;63400;50.650;6.832;2023-11-22T02:29:44;11.30;;;4.95;;
74851;SDS011;63400;50.650;6.832;2023-11-22T02:32:10;10.65;;;4.70;;
74851;SDS011;63400;50.650;6.832;2023-11-22T02:34:36;7.10;;;3.88;;
74851;SDS011;63400;50.650;6.832;2023-11-22T02:37:01;11.50;;;4.60;;
74851;SDS011;63400;50.650;6.832;2023-11-22T02:39:33;11.65;;;4.47;;
74851;SDS011;63400;50.650;6.832;2023-11-22T02:42:08;12.38;;;5.47;;
74851;SDS011;63400;50.650;6.832;2023-11-22T02:44:33;11.27;;;5.22;;
74851;SDS011;63400;50.650;6.832;2023-11-22T02:46:59;10.55;;;4.88;;
74851;SDS011;63400;50.650;6.832;2023-11-22T02:49:24;12.30;;;4.60;;
74851;SDS011;63400;50.650;6.832;2023-11-22T02:51:50;9.95;;;4.63;;
74851;SDS011;63400;50.650;6.832;2023-11-22T02:54:15;9.82;;;4.68;;
74851;SDS011;63400;50.650;6.832;2023-11-22T02:56:40;11.93;;;5.55;;
74851;SDS011;63400;50.650;6.832;2023-11-22T02:59:06;9.88;;;4.75;;
74851;SDS011;63400;50.650;6.832;2023-11-22T03:01:38;11.05;;;5.15;;
74851;SDS011;63400;50.650;6.832;2023-11-22T03:04:04;10.98;;;4.78;;
74851;SDS011;63400;50.650;6.832;2023-11-22T03:06:34;12.55;;;5.47;;
74851;SDS011;63400;50.650;6.832;2023-11-22T03:09:01;14.10;;;5.57;;
74851;SDS011;63400;50.650;6.832;2023-11-22T03:11:27;9.35;;;4.28;;
74851;SDS011;63400;50.650;6.832;2023-11-22T03:13:52;13.80;;;5.93;;
74851;SDS011;63400;50.650;6.832;2023-11-22T03:16:18;12.20;;;4.45;;
74851;SDS011;63400;50.650;6.832;2023-11-22T03:18:43;11.48;;;4.78;;
74851;SDS011;63400;50.650;6.832;2023-11-22T03:21:09;10.80;;;5.22;;
74851;SDS011;63400;50.650;6.832;2023-11-22T03:23:34;15.57;;;6.13;;
74851;SDS011;63400;50.650;6.832;2023-11-22T03:26:00;12.35;;;5.72;;
74851;SDS011;63400;50.650;6.832;2023-11-22T03:28:26;14.65;;;6.65;;
74851;SDS011;63400;50.650;6.832;2023-11-22T03:30:56;18.05;;;9.20;;
74851;SDS011;63400;50.650;6.832;2023-11-22T03:33:21;19.40;;;9.30;;
74851;SDS011;63400;50.650;6.832;2023-11-22T03:35:46;22.75;;;9.80;;
74851;SDS011;63400;50.650;6.832;2023-11-22T03:38:12;23.00;;;9.95;;
74851;SDS011;63400;50.650;6.832;2023-11-22T03:40:37;27.13;;;11.00;;
74851;SDS011;63400;50.650;6.832;2023-11-22T03:43:03;21.17;;;8.45;;
74851;SDS011;63400;50.650;6.832;2023-11-22T03:45:28;17.15;;;6.60;;
74851;SDS011;63400;50.650;6.832;2023-11-22T03:47:53;15.13;;;5.88;;
74851;SDS011;63400;50.650;6.832;2023-11-22T03:50:19;14.65;;;6.25;;
74851;SDS011;63400;50.650;6.832;2023-11-22T03:52:44;12.25;;;4.82;;
74851;SDS011;63400;50.650;6.832;2023-11-22T03:55:10;11.70;;;4.78;;
74851;SDS011;63400;50.650;6.832;2023-11-22T03:57:35;13.68;;;6.25;;
74851;SDS011;63400;50.650;6.832;2023-11-22T04:00:01;12.60;;;5.65;;
74851;SDS011;63400;50.650;6.832;2023-11-22T04:02:26;15.32;;;5.55;;
74851;SDS011;63400;50.650;6.832;2023-11-22T04:04:54;13.05;;;5.28;;
74851;SDS011;63400;50.650;6.832;2023-11-22T04:07:19;10.73;;;5.18;;
74851;SDS011;63400;50.650;6.832;2023-11-22T04:09:45;10.65;;;5.10;;
74851;SDS011;63400;50.650;6.832;2023-11-22T04:12:10;13.73;;;5.80;;
74851;SDS011;63400;50.650;6.832;2023-11-22T04:14:36;13.30;;;5.22;;
74851;SDS011;63400;50.650;6.832;2023-11-22T04:17:01;14.52;;;6.30;;
74851;SDS011;63400;50.650;6.832;2023-11-22T04:19:27;13.80;;;5.65;;
74851;SDS011;63400;50.650;6.832;2023-11-22T04:21:52;14.65;;;6.20;;
74851;SDS011;63400;50.650;6.832;2023-11-22T04:24:19;11.55;;;5.90;;
74851;SDS011;63400;50.650;6.832;2023-11-22T04:26:45;15.73;;;6.75;;
74851;SDS011;63400;50.650;6.832;2023-11-22T04:29:10;15.63;;;6.38;;
74851;SDS011;63400;50.650;6.832;2023-11-22T04:31:36;12.93;;;5.28;;
74851;SDS011;63400;50.650;6.832;2023-11-22T04:34:01;13.55;;;5.43;;
74851;SDS011;63400;50.650;6.832;2023-11-22T04:36:27;12.02;;;5.13;;
74851;SDS011;63400;50.650;6.832;2023-11-22T04:38:52;13.48;;;6.13;;
74851;SDS011;63400;50.650;6.832;2023-11-22T04:41:18;16.42;;;6.13;;
74851;SDS011;63400;50.650;6.832;2023-11-22T04:43:43;10.60;;;5.22;;
74851;SDS011;63400;50.650;6.832;2023-11-22T04:46:09;12.20;;;5.30;;
74851;SDS011;63400;50.650;6.832;2023-11-22T04:48:35;13.80;;;5.13;;
74851;SDS011;63400;50.650;6.832;2023-11-22T04:51:03;12.38;;;5.22;;
74851;SDS011;63400;50.650;6.832;2023-11-22T04:53:28;11.65;;;4.90;;
74851;SDS011;63400;50.650;6.832;2023-11-22T04:55:53;12.35;;;5.35;;
74851;SDS011;63400;50.650;6.832;2023-11-22T04:58:19;12.82;;;5.82;;
74851;SDS011;63400;50.650;6.832;2023-11-22T05:00:45;12.88;;;6.57;;
74851;SDS011;63400;50.650;6.832;2023-11-22T05:03:10;11.80;;;5.45;;
74851;SDS011;63400;50.650;6.832;2023-11-22T05:05:36;11.98;;;5.70;;
74851;SDS011;63400;50.650;6.832;2023-11-22T05:08:01;12.20;;;5.68;;
74851;SDS011;63400;50.650;6.832;2023-11-22T05:10:27;13.15;;;5.32;;
74851;SDS011;63400;50.650;6.832;2023-11-22T05:12:53;14.35;;;5.82;;
74851;SDS011;63400;50.650;6.832;2023-11-22T05:15:20;11.38;;;5.20;;
74851;SDS011;63400;50.650;6.832;2023-11-22T05:17:45;11.63;;;5.47;;
74851;SDS011;63400;50.650;6.832;2023-11-22T05:20:11;11.32;;;4.63;;
74851;SDS011;63400;50.650;6.832;2023-11-22T05:22:37;12.82;;;5.70;;
74851;SDS011;63400;50.650;6.832;2023-11-22T05:25:02;13.57;;;6.00;;
74851;SDS011;63400;50.650;6.832;2023-11-22T05:27:28;13.07;;;5.97;;
74851;SDS011;63400;50.650;6.832;2023-11-22T05:29:54;11.85;;;4.95;;
74851;SDS011;63400;50.650;6.832;2023-11-22T05:32:19;10.43;;;6.22;;
74851;SDS011;63400;50.650;6.832;2023-11-22T05:34:44;12.57;;;5.28;;
74851;SDS011;63400;50.650;6.832;2023-11-22T05:37:10;14.52;;;6.10;;
74851;SDS011;63400;50.650;6.832;2023-11-22T05:39:35;12.82;;;4.88;;
74851;SDS011;63400;50.650;6.832;2023-11-22T05:42:01;13.00;;;5.88;;
74851;SDS011;63400;50.650;6.832;2023-11-22T05:44:28;10.93;;;5.00;;
74851;SDS011;63400;50.650;6.832;2023-11-22T05:46:53;12.30;;;5.70;;
74851;SDS011;63400;50.650;6.832;2023-11-22T05:49:19;12.73;;;5.57;;
74851;SDS011;63400;50.650;6.832;2023-11-22T05:51:44;13.20;;;5.15;;
74851;SDS011;63400;50.650;6.832;2023-11-22T05:54:10;11.80;;;5.28;;
74851;SDS011;63400;50.650;6.832;2023-11-22T05:56:37;12.52;;;5.10;;
74851;SDS011;63400;50.650;6.832;2023-11-22T05:59:03;13.68;;;6.70;;
74851;SDS011;63400;50.650;6.832;2023-11-22T06:01:28;15.20;;;6.68;;
74851;SDS011;63400;50.650;6.832;2023-11-22T06:03:55;15.23;;;6.78;;
74851;SDS011;63400;50.650;6.832;2023-11-22T06:06:20;14.80;;;6.30;;
74851;SDS011;63400;50.650;6.832;2023-11-22T06:08:47;16.10;;;6.28;;
74851;SDS011;63400;50.650;6.832;2023-11-22T06:11:12;15.02;;;6.85;;
74851;SDS011;63400;50.650;6.832;2023-11-22T06:13:40;13.07;;;5.60;;
74851;SDS011;63400;50.650;6.832;2023-11-22T06:16:05;14.48;;;5.65;;
74851;SDS011;63400;50.650;6.832;2023-11-22T06:18:31;12.25;;;5.22;;
74851;SDS011;63400;50.650;6.832;2023-11-22T06:20:58;14.25;;;5.93;;
74851;SDS011;63400;50.650;6.832;2023-11-22T06:23:23;12.32;;;5.97;;
74851;SDS011;63400;50.650;6.832;2023-11-22T06:25:48;16.13;;;6.93;;
74851;SDS011;63400;50.650;6.832;2023-11-22T06:28:14;12.57;;;5.32;;
74851;SDS011;63400;50.650;6.832;2023-11-22T06:30:40;14.65;;;6.35;;
74851;SDS011;63400;50.650;6.832;2023-11-22T06:33:06;15.45;;;6.03;;
74851;SDS011;63400;50.650;6.832;2023-11-22T06:35:32;15.60;;;6.22;;
74851;SDS011;63400;50.650;6.832;2023-11-22T06:37:58;16.77;;;7.25;;
74851;SDS011;63400;50.650;6.832;2023-11-22T06:40:23;15.05;;;6.85;;
74851;SDS011;63400;50.650;6.832;2023-11-22T06:42:48;15.32;;;6.55;;
74851;SDS011;63400;50.650;6.832;2023-11-22T06:45:14;15.55;;;6.30;;
74851;SDS011;63400;50.650;6.832;2023-11-22T06:47:43;15.77;;;5.90;;
74851;SDS011;63400;50.650;6.832;2023-11-22T06:50:09;13.38;;;6.47;;
74851;SDS011;63400;50.650;6.832;2023-11-22T06:52:38;14.38;;;6.45;;
74851;SDS011;63400;50.650;6.832;2023-11-22T06:55:05;18.58;;;6.82;;
74851;SDS011;63400;50.650;6.832;2023-11-22T06:57:32;13.45;;;5.57;;
74851;SDS011;63400;50.650;6.832;2023-11-22T06:59:58;15.73;;;5.85;;
74851;SDS011;63400;50.650;6.832;2023-11-22T07:02:26;16.05;;;6.53;;
74851;SDS011;63400;50.650;6.832;2023-11-22T07:04:51;14.60;;;5.95;;
74851;SDS011;63400;50.650;6.832;2023-11-22T07:07:17;16.10;;;7.38;;
74851;SDS011;63400;50.650;6.832;2023-11-22T07:09:42;15.13;;;7.20;;
74851;SDS011;63400;50.650;6.832;2023-11-22T07:12:09;14.18;;;6.15;;
74851;SDS011;63400;50.650;6.832;2023-11-22T07:14:35;15.48;;;6.68;;
74851;SDS011;63400;50.650;6.832;2023-11-22T07:17:01;16.42;;;7.18;;
74851;SDS011;63400;50.650;6.832;2023-11-22T07:19:27;14.00;;;6.97;;
74851;SDS011;63400;50.650;6.832;2023-11-22T07:21:53;13.85;;;6.85;;
74851;SDS011;63400;50.650;6.832;2023-11-22T07:24:18;12.25;;;5.97;;
74851;SDS011;63400;50.650;6.832;2023-11-22T07:26:44;15.32;;;6.35;;
74851;SDS011;63400;50.650;6.832;2023-11-22T07:29:10;12.18;;;6.07;;
74851;SDS011;63400;50.650;6.832;2023-11-22T07:31:37;14.43;;;6.38;;
74851;SDS011;63400;50.650;6.832;2023-11-22T07:34:03;21.77;;;8.40;;
74851;SDS011;63400;50.650;6.832;2023-11-22T07:36:28;30.02;;;8.90;;
74851;SDS011;63400;50.650;6.832;2023-11-22T07:38:56;22.90;;;9.23;;
74851;SDS011;63400;50.650;6.832;2023-11-22T07:41:21;23.52;;;8.98;;
74851;SDS011;63400;50.650;6.832;2023-11-22T07:43:47;24.23;;;9.48;;
74851;SDS011;63400;50.650;6.832;2023-11-22T07:46:13;18.48;;;8.05;;
74851;SDS011;63400;50.650;6.832;2023-11-22T07:48:39;18.45;;;6.75;;
74851;SDS011;63400;50.650;6.832;2023-11-22T07:51:06;14.60;;;6.90;;
74851;SDS011;63400;50.650;6.832;2023-11-22T07:53:32;15.23;;;6.55;;
74851;SDS011;63400;50.650;6.832;2023-11-22T07:55:59;15.27;;;6.70;;
74851;SDS011;63400;50.650;6.832;2023-11-22T07:58:32;12.75;;;5.45;;
74851;SDS011;63400;50.650;6.832;2023-11-22T08:01:00;9.55;;;4.93;;
74851;SDS011;63400;50.650;6.832;2023-11-22T08:03:31;10.93;;;4.85;;
74851;SDS011;63400;50.650;6.832;2023-11-22T08:05:56;11.18;;;4.75;;
74851;SDS011;63400;50.650;6.832;2023-11-22T08:08:22;11.20;;;5.32;;
74851;SDS011;63400;50.650;6.832;2023-11-22T08:10:48;9.43;;;4.50;;
74851;SDS011;63400;50.650;6.832;2023-11-22T08:13:16;13.20;;;5.13;;
74851;SDS011;63400;50.650;6.832;2023-11-22T08:15:44;14.93;;;6.47;;
74851;SDS011;63400;50.650;6.832;2023-11-22T08:18:11;17.90;;;7.05;;
74851;SDS011;63400;50.650;6.832;2023-11-22T08:20:37;15.68;;;6.35;;
74851;SDS011;63400;50.650;6.832;2023-11-22T08:23:03;12.68;;;5.18;;
74851;SDS011;63400;50.650;6.832;2023-11-22T08:25:31;10.95;;;4.93;;
74851;SDS011;63400;50.650;6.832;2023-11-22T08:27:56;10.98;;;5.03;;
74851;SDS011;63400;50.650;6.832;2023-11-22T08:30:22;10.30;;;4.68;;
74851;SDS011;63400;50.650;6.832;2023-11-22T08:32:48;7.50;;;4.30;;
74851;SDS011;63400;50.650;6.832;2023-11-22T08:35:18;9.25;;;4.38;;
74851;SDS011;63400;50.650;6.832;2023-11-22T08:37:45;8.00;;;4.05;;
74851;SDS011;63400;50.650;6.832;2023-11-22T08:40:12;8.13;;;3.90;;
74851;SDS011;63400;50.650;6.832;2023-11-22T08:42:39;8.65;;;3.70;;
74851;SDS011;63400;50.650;6.832;2023-11-22T08:45:06;7.57;;;4.38;;
74851;SDS011;63400;50.650;6.832;2023-11-22T08:47:33;9.48;;;4.30;;
74851;SDS011;63400;50.650;6.832;2023-11-22T08:49:59;8.73;;;4.20;;
74851;SDS011;63400;50.650;6.832;2023-11-22T08:52:24;7.93;;;4.18;;
74851;SDS011;63400;50.650;6.832;2023-11-22T08:54:50;7.15;;;3.92;;
74851;SDS011;63400;50.650;6.832;2023-11-22T08:57:16;7.90;;;3.80;;
74851;SDS011;63400;50.650;6.832;2023-11-22T08:59:42;10.20;;;4.50;;
74851;SDS011;63400;50.650;6.832;2023-11-22T09:02:08;8.52;;;5.13;;
74851;SDS011;63400;50.650;6.832;2023-11-22T09:04:37;9.13;;;4.10;;
74851;SDS011;63400;50.650;6.832;2023-11-22T09:07:03;10.75;;;4.35;;
74851;SDS011;63400;50.650;6.832;2023-11-22T09:09:30;8.40;;;3.90;;
74851;SDS011;63400;50.650;6.832;2023-11-22T09:11:57;8.75;;;4.95;;
74851;SDS011;63400;50.650;6.832;2023-11-22T09:14:22;10.77;;;4.80;;
74851;SDS011;63400;50.650;6.832;2023-11-22T09:16:49;9.95;;;4.75;;
74851;SDS011;63400;50.650;6.832;2023-11-22T09:19:20;8.23;;;4.25;;
74851;SDS011;63400;50.650;6.832;2023-11-22T09:21:49;10.63;;;4.32;;
74851;SDS011;63400;50.650;6.832;2023-11-22T09:24:14;7.35;;;4.00;;
74851;SDS011;63400;50.650;6.832;2023-11-22T09:26:40;7.50;;;4.22;;
74851;SDS011;63400;50.650;6.832;2023-11-22T09:29:07;7.65;;;4.20;;
74851;SDS011;63400;50.650;6.832;2023-11-22T09:31:34;9.50;;;4.40;;
74851;SDS011;63400;50.650;6.832;2023-11-22T09:34:00;7.50;;;3.45;;
74851;SDS011;63400;50.650;6.832;2023-11-22T09:36:28;8.23;;;3.92;;
74851;SDS011;63400;50.650;6.832;2023-11-22T09:38:54;7.97;;;4.25;;
74851;SDS011;63400;50.650;6.832;2023-11-22T09:41:20;9.95;;;4.63;;
74851;SDS011;63400;50.650;6.832;2023-11-22T09:43:46;8.60;;;4.35;;
74851;SDS011;63400;50.650;6.832;2023-11-22T09:46:14;8.48;;;4.32;;
74851;SDS011;63400;50.650;6.832;2023-11-22T09:48:42;8.05;;;3.85;;
74851;SDS011;63400;50.650;6.832;2023-11-22T09:53:38;9.95;;;3.90;;
74851;SDS011;63400;50.650;6.832;2023-11-22T09:56:07;7.95;;;3.85;;
74851;SDS011;63400;50.650;6.832;2023-11-22T09:58:33;8.13;;;3.40;;
74851;SDS011;63400;50.650;6.832;2023-11-22T10:01:00;7.07;;;3.38;;
74851;SDS011;63400;50.650;6.832;2023-11-22T10:03:26;6.10;;;3.10;;
74851;SDS011;63400;50.650;6.832;2023-11-22T10:05:55;5.88;;;2.88;;
74851;SDS011;63400;50.650;6.832;2023-11-22T10:08:24;9.00;;;4.20;;
74851;SDS011;63400;50.650;6.832;2023-11-22T10:10:50;8.68;;;4.03;;
74851;SDS011;63400;50.650;6.832;2023-11-22T10:13:19;7.38;;;3.97;;
74851;SDS011;63400;50.650;6.832;2023-11-22T10:15:45;7.10;;;3.60;;
74851;SDS011;63400;50.650;6.832;2023-11-22T10:18:13;9.57;;;4.68;;
74851;SDS011;63400;50.650;6.832;2023-11-22T10:23:11;8.88;;;5.28;;
74851;SDS011;63400;50.650;6.832;2023-11-22T10:25:45;10.13;;;4.95;;
74851;SDS011;63400;50.650;6.832;2023-11-22T10:28:14;8.85;;;4.88;;
74851;SDS011;63400;50.650;6.832;2023-11-22T10:30:43;9.68;;;4.13;;
74851;SDS011;63400;50.650;6.832;2023-11-22T10:35:41;8.52;;;4.18;;
74851;SDS011;63400;50.650;6.832;2023-11-22T10:38:14;6.85;;;3.72;;
74851;SDS011;63400;50.650;6.832;2023-11-22T10:40:40;5.93;;;3.30;;
74851;SDS011;63400;50.650;6.832;2023-11-22T10:43:06;7.38;;;3.22;;
74851;SDS011;63400;50.650;6.832;2023-11-22T10:45:33;5.40;;;2.47;;
74851;SDS011;63400;50.650;6.832;2023-11-22T10:48:02;6.25;;;2.60;;
74851;SDS011;63400;50.650;6.832;2023-11-22T10:50:28;5.03;;;2.35;;
74851;SDS011;63400;50.650;6.832;2023-11-22T10:52:53;6.72;;;3.08;;
74851;SDS011;63400;50.650;6.832;2023-11-22T10:55:24;6.63;;;2.80;;
74851;SDS011;63400;50.650;6.832;2023-11-22T10:57:51;5.25;;;2.15;;
74851;SDS011;63400;50.650;6.832;2023-11-22T11:00:19;6.50;;;2.65;;
74851;SDS011;63400;50.650;6.832;2023-11-22T11:02:47;5.47;;;2.25;;
74851;SDS011;63400;50.650;6.832;2023-11-22T11:05:21;3.70;;;1.80;;
74851;SDS011;63400;50.650;6.832;2023-11-22T11:08:01;9.07;;;2.72;;
74851;SDS011;63400;50.650;6.832;2023-11-22T11:10:34;4.72;;;2.17;;
74851;SDS011;63400;50.650;6.832;2023-11-22T11:13:00;6.15;;;2.80;;
74851;SDS011;63400;50.650;6.832;2023-11-22T11:15:26;4.57;;;2.33;;
74851;SDS011;63400;50.650;6.832;2023-11-22T11:17:52;4.47;;;1.95;;
74851;SDS011;63400;50.650;6.832;2023-11-22T11:20:18;4.97;;;2.33;;
74851;SDS011;63400;50.650;6.832;2023-11-22T11:22:46;4.18;;;1.92;;
74851;SDS011;63400;50.650;6.832;2023-11-22T11:25:13;7.70;;;2.40;;
74851;SDS011;63400;50.650;6.832;2023-11-22T11:27:41;4.75;;;2.08;;
74851;SDS011;63400;50.650;6.832;2023-11-22T11:33:13;4.18;;;2.00;;
74851;SDS011;63400;50.650;6.832;2023-11-22T11:35:50;7.68;;;2.20;;
74851;SDS011;63400;50.650;6.832;2023-11-22T11:38:20;5.65;;;2.05;;
74851;SDS011;63400;50.650;6.832;2023-11-22T11:40:46;3.47;;;1.50;;
74851;SDS011;63400;50.650;6.832;2023-11-22T11:43:13;5.88;;;2.03;;
74851;SDS011;63400;50.650;6.832;2023-11-22T11:45:39;5.20;;;1.60;;
74851;SDS011;63400;50.650;6.832;2023-11-22T11:48:07;5.28;;;1.50;;
74851;SDS011;63400;50.650;6.832;2023-11-22T11:50:32;5.57;;;1.92;;
74851;SDS011;63400;50.650;6.832;2023-11-22T11:52:58;3.42;;;1.20;;
74851;SDS011;63400;50.650;6.832;2023-11-22T11:55:25;3.60;;;1.33;;
74851;SDS011;63400;50.650;6.832;2023-11-22T11:57:53;3.63;;;1.25;;
74851;SDS011;63400;50.650;6.832;2023-11-22T12:00:20;5.43;;;1.52;;
74851;SDS011;63400;50.650;6.832;2023-11-22T12:02:48;3.65;;;1.33;;
74851;SDS011;63400;50.650;6.832;2023-11-22T12:05:13;4.15;;;1.42;;
74851;SDS011;63400;50.650;6.832;2023-11-22T12:07:38;4.95;;;2.10;;
74851;SDS011;63400;50.650;6.832;2023-11-22T12:10:04;3.88;;;1.08;;
74851;SDS011;63400;50.650;6.832;2023-11-22T12:12:34;5.75;;;1.58;;
74851;SDS011;63400;50.650;6.832;2023-11-22T12:14:59;5.72;;;2.05;;
74851;SDS011;63400;50.650;6.832;2023-11-22T12:17:25;4.63;;;1.60;;
74851;SDS011;63400;50.650;6.832;2023-11-22T12:19:52;3.83;;;1.77;;
74851;SDS011;63400;50.650;6.832;2023-11-22T12:22:18;3.65;;;1.75;;
74851;SDS011;63400;50.650;6.832;2023-11-22T12:24:45;4.60;;;1.80;;
74851;SDS011;63400;50.650;6.832;2023-11-22T12:27:10;4.72;;;2.00;;
74851;SDS011;63400;50.650;6.832;2023-11-22T12:29:36;4.53;;;1.95;;
74851;SDS011;63400;50.650;6.832;2023-11-22T12:32:02;5.32;;;1.35;;
74851;SDS011;63400;50.650;6.832;2023-11-22T12:34:27;5.32;;;1.80;;
74851;SDS011;63400;50.650;6.832;2023-11-22T12:36:55;3.80;;;1.52;;
74851;SDS011;63400;50.650;6.832;2023-11-22T12:39:21;4.07;;;1.30;;
74851;SDS011;63400;50.650;6.832;2023-11-22T12:41:47;4.82;;;1.95;;
74851;SDS011;63400;50.650;6.832;2023-11-22T12:44:15;4.18;;;1.40;;
74851;SDS011;63400;50.650;6.832;2023-11-22T12:46:51;4.68;;;1.40;;
74851;SDS011;63400;50.650;6.832;2023-11-22T12:49:22;3.50;;;1.63;;
74851;SDS011;63400;50.650;6.832;2023-11-22T12:51:51;6.57;;;1.60;;
74851;SDS011;63400;50.650;6.832;2023-11-22T12:54:18;2.83;;;0.98;;
74851;SDS011;63400;50.650;6.832;2023-11-22T12:56:49;4.95;;;1.80;;
74851;SDS011;63400;50.650;6.832;2023-11-22T12:59:24;5.88;;;2.15;;
74851;SDS011;63400;50.650;6.832;2023-11-22T13:01:53;6.88;;;2.13;;
74851;SDS011;63400;50.650;6.832;2023-11-22T13:04:19;4.75;;;1.75;;
74851;SDS011;63400;50.650;6.832;2023-11-22T13:06:45;4.35;;;1.40;;
74851;SDS011;63400;50.650;6.832;2023-11-22T13:09:10;4.72;;;2.00;;
74851;SDS011;63400;50.650;6.832;2023-11-22T13:11:42;5.43;;;1.88;;
74851;SDS011;63400;50.650;6.832;2023-11-22T13:14:11;5.90;;;2.28;;
74851;SDS011;63400;50.650;6.832;2023-11-22T13:16:39;5.75;;;1.85;;
74851;SDS011;63400;50.650;6.832;2023-11-22T13:19:05;5.15;;;1.90;;
74851;SDS011;63400;50.650;6.832;2023-11-22T13:21:31;3.83;;;1.73;;
74851;SDS011;63400;50.650;6.832;2023-11-22T13:23:57;6.18;;;1.90;;
74851;SDS011;63400;50.650;6.832;2023-11-22T13:26:24;4.93;;;1.88;;
74851;SDS011;63400;50.650;6.832;2023-11-22T13:28:50;6.05;;;1.52;;
74851;SDS011;63400;50.650;6.832;2023-11-22T13:31:17;5.28;;;2.08;;
74851;SDS011;63400;50.650;6.832;2023-11-22T13:33:42;4.13;;;1.85;;
74851;SDS011;63400;50.650;6.832;2023-11-22T13:36:09;4.68;;;1.50;;
74851;SDS011;63400;50.650;6.832;2023-11-22T13:38:35;4.18;;;1.63;;
74851;SDS011;63400;50.650;6.832;2023-11-22T13:41:01;4.55;;;1.40;;
74851;SDS011;63400;50.650;6.832;2023-11-22T13:43:27;3.85;;;1.85;;
74851;SDS011;63400;50.650;6.832;2023-11-22T13:45:53;4.25;;;1.70;;
74851;SDS011;63400;50.650;6.832;2023-11-22T13:48:18;4.63;;;1.80;;
74851;SDS011;63400;50.650;6.832;2023-11-22T13:50:44;4.25;;;1.70;;
74851;SDS011;63400;50.650;6.832;2023-11-22T13:53:09;3.58;;;1.48;;
74851;SDS011;63400;50.650;6.832;2023-11-22T13:55:36;4.25;;;1.63;;
74851;SDS011;63400;50.650;6.832;2023-11-22T13:58:02;4.15;;;1.73;;
74851;SDS011;63400;50.650;6.832;2023-11-22T14:00:29;5.97;;;1.55;;
74851;SDS011;63400;50.650;6.832;2023-11-22T14:03:00;4.07;;;1.73;;
74851;SDS011;63400;50.650;6.832;2023-11-22T14:05:33;5.57;;;2.10;;
74851;SDS011;63400;50.650;6.832;2023-11-22T14:07:59;3.97;;;1.90;;
74851;SDS011;63400;50.650;6.832;2023-11-22T14:10:25;4.18;;;1.60;;
74851;SDS011;63400;50.650;6.832;2023-11-22T14:12:51;5.13;;;2.05;;
74851;SDS011;63400;50.650;6.832;2023-11-22T14:15:17;3.33;;;1.23;;
74851;SDS011;63400;50.650;6.832;2023-11-22T14:17:44;5.43;;;1.60;;
74851;SDS011;63400;50.650;6.832;2023-11-22T14:20:11;3.65;;;1.55;;
74851;SDS011;63400;50.650;6.832;2023-11-22T14:22:37;3.78;;;1.38;;
74851;SDS011;63400;50.650;6.832;2023-11-22T14:25:04;2.95;;;0.90;;
74851;SDS011;63400;50.650;6.832;2023-11-22T14:27:40;3.70;;;1.35;;
74851;SDS011;63400;50.650;6.832;2023-11-22T14:30:06;4.93;;;1.38;;
74851;SDS011;63400;50.650;6.832;2023-11-22T14:32:33;3.35;;;1.70;;
74851;SDS011;63400;50.650;6.832;2023-11-22T14:35:00;4.57;;;1.10;;
74851;SDS011;63400;50.650;6.832;2023-11-22T14:37:29;5.20;;;1.38;;
74851;SDS011;63400;50.650;6.832;2023-11-22T14:39:55;3.90;;;1.48;;
74851;SDS011;63400;50.650;6.832;2023-11-22T14:42:20;3.85;;;1.50;;
74851;SDS011;63400;50.650;6.832;2023-11-22T14:44:46;2.78;;;1.00;;
74851;SDS011;63400;50.650;6.832;2023-11-22T14:47:12;4.35;;;1.17;;
74851;SDS011;63400;50.650;6.832;2023-11-22T14:49:41;3.38;;;0.93;;
74851;SDS011;63400;50.650;6.832;2023-11-22T14:52:07;3.10;;;0.98;;